Time;durP1;ratioP1;P1;durP2;ratioP2;P2;SDS_P1;SDS_P2;PMS_P1;PMS_P2;Temp;Humidity;BMP_temperature;BMP_pressure;BME280_temperature;BME280_humidity;BME280_pressure;Samples;Min_cycle;Max_cycle;Signal;HPM_P1;HPM_P2
2023/04/05 00:01:52;;;;;;;8.95;5.75;;;;;;;18.29;42.81;102648.72;5047428;28;20107;-26
2023/04/05 00:04:22;;;;;;;8.90;5.75;;;;;;;18.26;42.91;102647.13;5048200;28;20448;-26
2023/04/05 00:06:51;;;;;;;9.05;6.22;;;;;;;18.23;43.16;102639.28;5050048;28;20049;-26
2023/04/05 00:09:19;;;;;;;8.85;5.78;;;;;;;18.23;43.10;102648.19;5051191;28;20056;-26
2023/04/05 00:11:47;;;;;;;9.13;6.07;;;;;;;18.22;42.95;102637.59;5048234;28;20119;-26
2023/04/05 00:14:14;;;;;;;8.35;5.30;;;;;;;18.18;42.86;102642.31;5048339;28;20045;-26
2023/04/05 00:16:41;;;;;;;8.90;6.00;;;;;;;18.18;43.30;102638.78;5047133;28;20053;-25
2023/04/05 00:19:09;;;;;;;8.45;5.75;;;;;;;18.16;42.86;102644.22;5046854;28;20064;-26
2023/04/05 00:21:38;;;;;;;8.57;5.45;;;;;;;18.15;43.26;102638.97;5049269;28;20135;-26
2023/04/05 00:24:05;;;;;;;8.40;5.63;;;;;;;18.13;43.43;102632.84;5051193;28;20055;-26
2023/04/05 00:26:31;;;;;;;7.53;5.63;;;;;;;18.11;42.93;102638.34;5047134;28;20060;-26
2023/04/05 00:28:58;;;;;;;9.93;5.45;;;;;;;18.09;43.18;102636.72;5050757;28;20072;-26
2023/04/05 00:31:24;;;;;;;8.73;5.63;;;;;;;18.08;43.05;102627.81;5045057;28;20045;-26
2023/04/05 00:33:51;;;;;;;7.65;4.78;;;;;;;18.07;43.39;102636.84;5047309;28;20463;-26
2023/04/05 00:36:19;;;;;;;7.35;4.95;;;;;;;18.07;43.36;102638.69;5049316;28;20147;-26
2023/04/05 00:38:48;;;;;;;7.32;4.70;;;;;;;17.98;43.49;102630.31;5050458;28;20462;-26
2023/04/05 00:41:15;;;;;;;6.78;4.68;;;;;;;17.94;43.12;102631.50;5049265;28;20429;-26
2023/04/05 00:43:42;;;;;;;8.30;5.25;;;;;;;18.03;43.23;102631.81;5047135;28;20052;-26
2023/04/05 00:46:09;;;;;;;6.97;4.55;;;;;;;18.14;42.91;102624.72;5044452;28;20049;-26
2023/04/05 00:48:37;;;;;;;7.38;4.88;;;;;;;18.24;42.55;102623.06;5048785;28;20425;-26
2023/04/05 00:51:08;;;;;;;7.25;5.03;;;;;;;18.33;42.45;102620.69;5048189;28;20041;-26
2023/04/05 00:53:35;;;;;;;6.65;4.72;;;;;;;18.44;42.78;102621.59;5055665;28;20126;-25
2023/04/05 00:56:02;;;;;;;7.82;4.80;;;;;;;18.53;42.54;102619.22;5049684;28;20377;-26
2023/04/05 00:58:29;;;;;;;5.93;4.25;;;;;;;18.62;42.33;102614.03;5055176;28;20182;-26
2023/04/05 01:01:05;;;;;;;6.97;4.68;;;;;;;18.69;42.48;102617.97;5051411;28;20083;-26
2023/04/05 01:03:35;;;;;;;9.75;4.38;;;;;;;18.76;41.95;102615.69;5052459;28;20053;-26
2023/04/05 01:06:02;;;;;;;6.20;4.20;;;;;;;18.81;41.99;102605.47;5054246;28;20337;-25
2023/04/05 01:08:44;;;;;;;6.97;4.45;;;;;;;18.87;41.72;102609.53;5050639;28;20053;-25
2023/04/05 01:11:12;;;;;;;6.80;4.63;;;;;;;18.90;41.47;102604.78;5048543;28;20715;-25
2023/04/05 01:13:38;;;;;;;6.22;3.75;;;;;;;18.93;41.80;102603.69;5055017;28;20083;-26
2023/04/05 01:16:05;;;;;;;6.32;4.40;;;;;;;18.93;41.51;102604.53;5051444;28;20053;-25
2023/04/05 01:18:35;;;;;;;6.00;4.00;;;;;;;18.93;41.85;102609.06;5050919;28;20104;-25
2023/04/05 01:21:32;;;;;;;5.55;3.60;;;;;;;18.91;40.99;102605.63;5044277;28;20329;-25
2023/04/05 01:24:19;;;;;;;6.28;3.80;;;;;;;18.91;41.66;102601.13;5051418;28;20052;-26
2023/04/05 01:27:06;;;;;;;5.90;4.10;;;;;;;18.90;41.22;102598.56;5052739;28;20433;-26
2023/04/05 01:29:42;;;;;;;6.07;3.85;;;;;;;18.89;41.34;102596.81;5049617;28;20049;-25
2023/04/05 01:32:21;;;;;;;5.72;3.53;;;;;;;18.87;41.32;102593.41;5048566;28;20522;-25
2023/04/05 01:34:55;;;;;;;5.20;3.60;;;;;;;18.87;41.15;102590.72;5050384;28;20041;-26
2023/04/05 01:37:26;;;;;;;6.28;3.60;;;;;;;18.86;41.59;102587.19;5050190;28;20053;-26
2023/04/05 01:39:54;;;;;;;5.13;3.30;;;;;;;18.86;41.67;102586.34;5050719;28;20421;-26
2023/04/05 01:42:25;;;;;;;5.72;3.42;;;;;;;18.84;40.93;102583.75;5049382;28;20156;-26
2023/04/05 01:44:53;;;;;;;5.32;3.67;;;;;;;18.83;41.89;102581.19;5051532;28;20071;-26
2023/04/05 01:47:20;;;;;;;5.93;3.60;;;;;;;18.83;41.77;102581.19;5043357;28;20071;-25
2023/04/05 01:49:47;;;;;;;4.68;3.15;;;;;;;18.82;41.82;102574.09;5051053;28;20436;-26
2023/04/05 01:52:13;;;;;;;5.00;3.25;;;;;;;18.81;41.46;102573.22;5049009;28;20053;-26
2023/04/05 01:54:40;;;;;;;4.95;3.20;;;;;;;18.80;41.24;102570.66;5051320;28;20049;-26
2023/04/05 01:57:06;;;;;;;6.25;3.90;;;;;;;18.79;41.21;102568.97;5044721;28;20080;-25
2023/04/05 01:59:33;;;;;;;4.43;3.13;;;;;;;18.77;41.62;102574.44;5050360;28;20504;-26
2023/04/05 02:02:00;;;;;;;4.63;3.22;;;;;;;18.79;41.53;102568.97;5046723;28;20056;-26
2023/04/05 02:04:26;;;;;;;4.53;3.35;;;;;;;18.79;41.66;102568.97;5052496;28;20133;-26
2023/04/05 02:06:53;;;;;;;4.72;3.17;;;;;;;18.80;41.85;102573.34;5052161;28;20049;-25
2023/04/05 02:09:19;;;;;;;5.50;3.50;;;;;;;18.82;41.63;102572.28;5049766;28;20131;-25
2023/04/05 02:11:46;;;;;;;4.60;3.05;;;;;;;18.85;41.50;102563.97;5048018;28;20051;-26
2023/04/05 02:14:13;;;;;;;5.03;3.03;;;;;;;18.88;41.42;102554.81;5052796;28;20076;-25
2023/04/05 02:16:39;;;;;;;4.57;2.70;;;;;;;18.91;41.40;102557.28;5049639;28;20447;-26
2023/04/05 02:19:06;;;;;;;4.20;2.85;;;;;;;18.93;40.80;102553.47;5049649;28;20341;-26
2023/04/05 02:21:34;;;;;;;4.45;2.75;;;;;;;18.96;41.41;102545.19;5050942;28;20138;-26
2023/04/05 02:24:01;;;;;;;4.45;3.08;;;;;;;18.98;41.33;102548.63;5050871;28;20044;-25
2023/04/05 02:26:27;;;;;;;4.20;2.92;;;;;;;19.00;41.26;102540.44;5051954;28;20045;-25
2023/04/05 02:28:54;;;;;;;4.18;2.78;;;;;;;19.01;41.26;102544.81;5050897;28;20146;-26
2023/04/05 02:31:20;;;;;;;3.97;2.60;;;;;;;19.02;41.44;102543.03;5050006;28;20441;-26
2023/04/05 02:33:48;;;;;;;3.58;2.38;;;;;;;18.99;41.30;102544.09;5053566;28;20045;-25
2023/04/05 02:36:14;;;;;;;5.35;3.13;;;;;;;18.96;41.07;102533.59;5051476;28;20065;-26
2023/04/05 02:38:41;;;;;;;3.90;3.10;;;;;;;18.94;41.29;102543.63;5050452;28;20082;-26
2023/04/05 02:41:10;;;;;;;5.05;2.83;;;;;;;18.89;41.54;102530.50;5049844;28;20048;-26
2023/04/05 02:43:37;;;;;;;4.68;2.92;;;;;;;18.87;41.14;102537.84;5048243;28;20049;-25
2023/04/05 02:46:04;;;;;;;4.10;2.90;;;;;;;18.84;41.62;102534.53;5047776;28;20053;-26
2023/04/05 02:48:31;;;;;;;4.53;2.63;;;;;;;18.78;41.14;102535.03;5046122;28;20187;-25
2023/04/05 02:50:58;;;;;;;4.97;2.72;;;;;;;18.71;41.57;102538.16;5045897;28;20049;-26
2023/04/05 02:53:24;;;;;;;3.92;2.60;;;;;;;18.65;41.73;102526.97;5049325;28;20455;-25
2023/04/05 02:55:53;;;;;;;3.13;2.35;;;;;;;18.56;41.63;102523.16;5049799;28;20045;-26
2023/04/05 02:58:20;;;;;;;3.38;2.42;;;;;;;18.49;41.66;102525.47;5049472;28;20060;-25
2023/04/05 03:00:51;;;;;;;4.00;2.60;;;;;;;18.41;41.69;102521.63;5042503;28;20049;-25
2023/04/05 03:03:19;;;;;;;4.00;2.90;;;;;;;18.33;41.78;102514.19;5047769;28;20429;-26
2023/04/05 03:05:47;;;;;;;3.95;2.60;;;;;;;18.22;42.13;102512.28;5051325;28;20425;-26
2023/04/05 03:08:18;;;;;;;4.10;2.65;;;;;;;18.15;42.19;102510.16;5048274;28;20372;-25
2023/04/05 03:10:45;;;;;;;4.68;2.65;;;;;;;18.08;42.15;102511.59;5046810;28;20414;-25
2023/04/05 03:13:15;;;;;;;3.40;2.30;;;;;;;17.97;42.27;102515.94;5050255;28;20053;-26
2023/04/05 03:15:41;;;;;;;4.63;2.95;;;;;;;17.89;42.63;102512.06;5044544;28;20052;-26
2023/04/05 03:18:09;;;;;;;3.80;2.25;;;;;;;17.83;42.77;102513.38;5048096;28;20093;-26
2023/04/05 03:20:40;;;;;;;3.10;2.33;;;;;;;17.74;42.81;102501.50;5047147;28;20064;-25
2023/04/05 03:23:07;;;;;;;3.50;2.30;;;;;;;17.68;42.72;102506.41;5048642;28;20044;-26
2023/04/05 03:25:39;;;;;;;4.50;2.35;;;;;;;17.62;43.60;102498.84;5049936;28;20114;-26
2023/04/05 03:28:07;;;;;;;4.10;2.60;;;;;;;17.70;43.17;102499.13;5047780;28;20048;-26
2023/04/05 03:30:34;;;;;;;4.20;2.13;;;;;;;17.83;42.91;102493.75;5048306;28;20084;-25
2023/04/05 03:33:01;;;;;;;2.92;2.00;;;;;;;17.95;42.90;102492.88;5050589;28;20068;-25
2023/04/05 03:35:28;;;;;;;4.35;2.50;;;;;;;18.07;42.50;102489.28;5051330;28;20127;-25
2023/04/05 03:37:55;;;;;;;3.72;2.30;;;;;;;18.21;42.32;102493.59;5048760;28;20053;-25
2023/04/05 03:40:23;;;;;;;3.17;2.10;;;;;;;18.33;41.78;102497.19;5047686;28;20692;-25
2023/04/05 03:42:50;;;;;;;4.75;2.33;;;;;;;18.42;42.28;102500.06;5048122;28;20127;-25
2023/04/05 03:45:17;;;;;;;3.40;2.10;;;;;;;18.51;42.24;102493.13;5050591;28;20051;-26
2023/04/05 03:47:49;;;;;;;2.95;2.05;;;;;;;18.58;41.64;102496.22;5052087;28;20103;-26
2023/04/05 03:50:16;;;;;;;2.92;1.92;;;;;;;18.66;41.45;102501.84;5049027;28;20053;-26
2023/04/05 03:52:42;;;;;;;3.53;2.50;;;;;;;18.68;41.74;102500.75;5050098;28;20056;-25
2023/04/05 03:55:09;;;;;;;3.30;2.22;;;;;;;18.70;41.42;102501.53;5048502;28;20063;-25
2023/04/05 03:57:37;;;;;;;3.95;2.30;;;;;;;18.71;41.39;102499.69;5045075;28;20040;-25
2023/04/05 04:00:14;;;;;;;2.65;2.05;;;;;;;18.70;41.52;102506.91;5041793;28;20420;-26
2023/04/05 04:02:48;;;;;;;3.83;2.10;;;;;;;18.68;41.33;102502.59;5048441;28;20428;-25
2023/04/05 04:05:16;;;;;;;3.20;1.90;;;;;;;18.67;41.24;102503.56;5042531;28;20049;-27
2023/04/05 04:07:43;;;;;;;2.95;1.90;;;;;;;18.62;41.53;102498.56;5048833;28;20084;-25
2023/04/05 04:10:13;;;;;;;4.15;2.13;;;;;;;18.60;41.05;102499.63;5042592;28;20071;-26
2023/04/05 04:12:39;;;;;;;3.50;2.05;;;;;;;18.57;41.18;102505.22;5042618;28;20049;-25
2023/04/05 04:15:06;;;;;;;3.80;2.35;;;;;;;18.53;41.58;102504.59;5042477;28;20044;-25
2023/04/05 04:17:36;;;;;;;3.20;2.10;;;;;;;18.47;41.66;102505.06;5046091;28;20049;-26
2023/04/05 04:20:09;;;;;;;3.90;2.20;;;;;;;18.39;41.00;102500.28;5043029;28;20057;-25
2023/04/05 04:22:38;;;;;;;2.92;2.13;;;;;;;18.33;41.43;102503.44;5046805;28;20140;-26
2023/04/05 04:25:10;;;;;;;4.00;2.67;;;;;;;18.24;41.35;102499.59;5045485;28;20053;-26
2023/04/05 04:27:39;;;;;;;4.07;2.40;;;;;;;18.16;41.55;102502.00;5050983;28;20045;-26
2023/04/05 04:30:09;;;;;;;3.10;2.20;;;;;;;18.07;41.89;102494.63;5046103;28;20045;-25
2023/04/05 04:32:50;;;;;;;3.50;2.25;;;;;;;17.99;41.90;102494.34;5043811;28;20049;-26
2023/04/05 04:35:28;;;;;;;3.47;2.38;;;;;;;17.88;42.26;102494.28;5050675;28;20341;-25
2023/04/05 04:38:02;;;;;;;6.93;2.40;;;;;;;17.80;42.09;102492.16;5049854;28;20128;-26
2023/04/05 04:40:37;;;;;;;7.55;3.38;;;;;;;17.71;42.63;102501.69;5049303;28;20087;-25
2023/04/05 04:43:13;;;;;;;6.15;3.10;;;;;;;17.64;42.57;102500.41;5047623;28;20429;-25
2023/04/05 04:45:40;;;;;;;5.70;3.20;;;;;;;17.55;42.93;102495.72;5049215;28;20048;-26
2023/04/05 04:48:07;;;;;;;5.15;2.67;;;;;;;17.47;42.51;102496.28;5048575;28;20045;-25
2023/04/05 04:50:34;;;;;;;5.53;3.08;;;;;;;17.41;43.22;102490.50;5051432;28;20053;-25
2023/04/05 04:53:01;;;;;;;5.22;2.78;;;;;;;17.33;43.31;102498.25;5050537;28;20125;-25
2023/04/05 04:55:28;;;;;;;6.68;2.90;;;;;;;17.26;42.95;102493.28;5049794;28;20049;-26
2023/04/05 04:57:55;;;;;;;7.30;3.38;;;;;;;17.20;43.24;102488.34;5047838;28;20055;-25
2023/04/05 05:00:22;;;;;;;6.38;3.00;;;;;;;17.17;43.46;102491.28;5049344;28;20053;-26
2023/04/05 05:02:51;;;;;;;4.95;2.97;;;;;;;17.13;43.34;102486.25;5049075;28;20523;-25
2023/04/05 05:05:21;;;;;;;5.70;3.08;;;;;;;17.10;43.40;102489.97;5049328;28;20140;-25
2023/04/05 05:07:48;;;;;;;4.82;2.75;;;;;;;17.09;43.88;102492.78;5046372;28;20104;-26
2023/04/05 05:10:15;;;;;;;6.15;2.88;;;;;;;17.09;43.34;102492.78;5048897;28;20468;-26
2023/04/05 05:12:42;;;;;;;4.38;3.03;;;;;;;17.09;43.33;102493.63;5050388;28;20515;-25
2023/04/05 05:15:09;;;;;;;5.40;2.90;;;;;;;17.09;43.35;102496.31;5048218;28;20388;-25
2023/04/05 05:17:38;;;;;;;6.40;2.85;;;;;;;17.11;43.31;102496.19;5045335;28;20049;-25
2023/04/05 05:20:09;;;;;;;6.18;2.65;;;;;;;17.12;43.34;102488.03;5048541;28;20095;-26
2023/04/05 05:22:36;;;;;;;6.28;3.33;;;;;;;17.15;43.10;102493.19;5050343;28;20068;-25
2023/04/05 05:25:04;;;;;;;9.27;3.40;;;;;;;17.17;43.37;102495.78;5049583;28;20053;-26
2023/04/05 05:27:32;;;;;;;5.80;3.10;;;;;;;17.18;43.21;102495.66;5045068;28;20057;-25
2023/04/05 05:29:59;;;;;;;4.47;2.97;;;;;;;17.20;43.30;102491.03;5047902;28;20085;-25
2023/04/05 05:32:26;;;;;;;5.03;2.72;;;;;;;17.22;43.07;102486.44;5048203;28;20044;-25
2023/04/05 05:34:53;;;;;;;5.43;3.05;;;;;;;17.23;43.59;102489.97;5053346;28;20051;-26
2023/04/05 05:37:28;;;;;;;4.63;2.75;;;;;;;17.27;43.53;102483.44;5053016;28;20482;-26
2023/04/05 05:39:55;;;;;;;4.07;2.72;;;;;;;17.32;43.52;102491.13;5048974;28;20356;-26
2023/04/05 05:42:21;;;;;;;7.15;2.90;;;;;;;17.34;43.54;102483.88;5053162;28;20057;-26
2023/04/05 05:44:48;;;;;;;5.10;3.15;;;;;;;17.39;42.96;102484.38;5048997;28;20049;-25
2023/04/05 05:47:15;;;;;;;6.68;3.28;;;;;;;17.41;42.68;102488.69;5053450;28;20053;-26
2023/04/05 05:49:41;;;;;;;5.82;3.03;;;;;;;17.42;43.07;102495.75;5052861;28;20413;-25
2023/04/05 05:52:08;;;;;;;4.82;2.90;;;;;;;17.43;42.85;102497.47;5053072;28;20045;-25
2023/04/05 05:54:34;;;;;;;5.07;2.80;;;;;;;17.45;42.68;102490.19;5053650;28;20048;-25
2023/04/05 05:57:01;;;;;;;5.45;3.03;;;;;;;17.48;42.75;102483.72;5053204;28;20055;-26
2023/04/05 05:59:27;;;;;;;6.00;2.70;;;;;;;17.51;42.78;102489.72;5051990;28;20124;-26
2023/04/05 06:01:54;;;;;;;6.38;3.00;;;;;;;17.56;42.96;102496.56;5050839;28;20053;-26
2023/04/05 06:04:21;;;;;;;3.65;2.70;;;;;;;17.59;42.62;102493.69;5053850;28;20411;-25
2023/04/05 06:06:48;;;;;;;4.28;2.47;;;;;;;17.64;42.31;102496.88;5053772;28;20128;-25
2023/04/05 06:09:16;;;;;;;5.13;2.67;;;;;;;17.68;42.31;102496.53;5053106;28;20060;-25
2023/04/05 06:11:42;;;;;;;6.15;2.88;;;;;;;17.73;42.69;102493.56;5051635;28;20095;-26
2023/04/05 06:14:22;;;;;;;6.57;3.10;;;;;;;17.78;42.49;102498.63;5049073;28;20459;-25
2023/04/05 06:16:48;;;;;;;7.38;2.97;;;;;;;17.82;42.42;102503.63;5050119;28;20091;-26
2023/04/05 06:19:15;;;;;;;5.47;3.40;;;;;;;17.86;42.40;102507.81;5052153;28;20144;-27
2023/04/05 06:21:41;;;;;;;4.53;2.50;;;;;;;17.90;42.00;102497.72;5052123;28;20111;-26
2023/04/05 06:24:08;;;;;;;5.97;3.15;;;;;;;17.94;42.21;102496.53;5052218;28;20144;-25
2023/04/05 06:26:34;;;;;;;5.18;2.60;;;;;;;17.99;41.76;102494.34;5050712;28;20067;-25
2023/04/05 06:29:01;;;;;;;3.90;2.92;;;;;;;18.03;41.73;102489.63;5052378;28;20131;-25
2023/04/05 06:31:32;;;;;;;6.93;3.00;;;;;;;18.07;42.42;102491.94;5050757;28;20059;-25
2023/04/05 06:34:00;;;;;;;5.88;3.13;;;;;;;18.10;42.03;102491.75;5052774;28;20705;-25
2023/04/05 06:36:30;;;;;;;5.25;2.80;;;;;;;18.15;41.95;102489.56;5051526;28;20048;-25
2023/04/05 06:38:57;;;;;;;8.73;3.13;;;;;;;18.19;41.90;102487.50;5052800;28;20048;-25
2023/04/05 06:41:23;;;;;;;7.72;3.03;;;;;;;18.22;41.35;102482.78;5048698;28;20056;-25
2023/04/05 06:43:50;;;;;;;5.78;2.95;;;;;;;18.25;41.83;102484.34;5048967;28;20084;-25
2023/04/05 06:46:16;;;;;;;4.88;2.78;;;;;;;18.30;41.59;102475.97;5048944;28;20344;-25
2023/04/05 06:48:43;;;;;;;4.00;2.50;;;;;;;18.33;41.52;102486.47;5052144;28;20132;-25
2023/04/05 06:51:10;;;;;;;5.15;2.90;;;;;;;18.37;41.67;102482.56;5053095;28;20049;-25
2023/04/05 06:53:36;;;;;;;4.82;3.00;;;;;;;18.38;41.32;102481.63;5051147;28;20052;-25
2023/04/05 06:56:03;;;;;;;5.63;2.80;;;;;;;18.41;41.26;102489.41;5051355;28;20337;-25
2023/04/05 06:58:29;;;;;;;4.80;2.53;;;;;;;18.43;40.79;102488.34;5052385;28;20068;-25
2023/04/05 07:00:56;;;;;;;5.80;3.17;;;;;;;18.45;41.24;102489.09;5050702;28;20322;-25
2023/04/05 07:03:23;;;;;;;4.72;2.78;;;;;;;18.47;41.10;102484.44;5052328;28;20048;-25
2023/04/05 07:05:55;;;;;;;7.20;2.75;;;;;;;18.49;40.58;102487.00;5051833;28;20051;-25
2023/04/05 07:08:22;;;;;;;4.23;2.37;;;;;;;18.50;40.44;102481.53;5048416;28;20048;-25
2023/04/05 07:10:50;;;;;;;4.45;2.80;;;;;;;18.52;40.79;102486.78;5051304;28;20055;-25
2023/04/05 07:13:18;;;;;;;4.38;2.67;;;;;;;18.53;40.45;102482.25;5045794;28;20049;-25
2023/04/05 07:15:45;;;;;;;4.03;2.72;;;;;;;18.53;40.56;102493.00;5050388;28;20059;-25
2023/04/05 07:18:14;;;;;;;5.60;2.58;;;;;;;18.52;40.52;102486.78;5050809;28;20154;-25
2023/04/05 07:20:41;;;;;;;5.53;2.67;;;;;;;18.51;40.78;102485.06;5047492;28;20044;-25
2023/04/05 07:23:08;;;;;;;6.15;2.95;;;;;;;18.51;40.67;102490.44;5051900;28;20079;-26
2023/04/05 07:25:35;;;;;;;5.93;3.20;;;;;;;18.49;40.59;102484.31;5052084;28;20136;-25
2023/04/05 07:28:01;;;;;;;4.20;2.50;;;;;;;18.50;39.86;102483.38;5049370;28;20047;-25
2023/04/05 07:30:30;;;;;;;3.30;2.28;;;;;;;18.49;40.04;102478.94;5049439;28;20049;-25
2023/04/05 07:32:57;;;;;;;4.03;2.55;;;;;;;18.47;40.16;102483.59;5051525;28;20068;-25
2023/04/05 07:35:24;;;;;;;4.90;2.85;;;;;;;18.45;39.68;102478.34;5051588;28;20049;-25
2023/04/05 07:37:51;;;;;;;6.80;2.78;;;;;;;18.43;40.46;102474.91;5049160;28;20053;-25
2023/04/05 07:40:18;;;;;;;3.65;2.58;;;;;;;18.42;40.33;102475.03;5049292;28;20433;-25
2023/04/05 07:42:44;;;;;;;6.07;3.00;;;;;;;18.42;40.53;102480.41;5046254;28;20047;-25
2023/04/05 07:45:11;;;;;;;4.03;2.38;;;;;;;18.41;40.39;102478.69;5050339;28;20063;-25
2023/04/05 07:47:37;;;;;;;4.05;2.35;;;;;;;18.41;40.42;102478.69;5049859;28;20132;-25
2023/04/05 07:50:05;;;;;;;5.97;2.53;;;;;;;18.40;40.36;102483.19;5052022;28;20052;-25
2023/04/05 07:52:32;;;;;;;3.83;2.40;;;;;;;18.40;40.57;102479.66;5050952;28;20045;-25
2023/04/05 07:54:59;;;;;;;6.07;2.63;;;;;;;18.39;40.63;102475.28;5049320;28;20128;-25
2023/04/05 07:57:26;;;;;;;4.35;2.65;;;;;;;18.39;40.19;102478.81;5049047;28;20071;-25
2023/04/05 07:59:54;;;;;;;5.35;2.40;;;;;;;18.39;40.49;102478.81;5047603;28;20056;-25
2023/04/05 08:02:21;;;;;;;3.70;2.33;;;;;;;18.41;40.46;102474.19;5051788;28;20100;-25
2023/04/05 08:04:47;;;;;;;5.03;2.05;;;;;;;18.42;40.22;102470.53;5051085;28;20059;-25
2023/04/05 08:07:14;;;;;;;4.57;2.45;;;;;;;18.44;40.15;102476.63;5049877;28;20409;-25
2023/04/05 08:09:41;;;;;;;4.05;2.15;;;;;;;18.46;40.49;102479.22;5047688;28;20163;-25
2023/04/05 08:12:07;;;;;;;4.35;2.28;;;;;;;18.48;40.61;102470.03;5050976;28;20148;-25
2023/04/05 08:14:34;;;;;;;3.25;1.75;;;;;;;18.50;40.44;102468.13;5046379;28;20048;-25
2023/04/05 08:17:01;;;;;;;4.20;2.35;;;;;;;18.54;40.66;102467.88;5048326;28;20329;-25
2023/04/05 08:19:27;;;;;;;2.78;1.85;;;;;;;18.57;40.46;102467.63;5050240;28;20356;-26
2023/04/05 08:21:54;;;;;;;4.50;2.28;;;;;;;18.59;40.24;102463.88;5049436;28;20128;-25
2023/04/05 08:24:20;;;;;;;2.78;1.83;;;;;;;18.64;40.58;102469.72;5049117;28;20048;-25
2023/04/05 08:26:47;;;;;;;3.00;2.03;;;;;;;18.67;39.80;102469.50;5050254;28;20049;-25
2023/04/05 08:29:14;;;;;;;4.25;2.05;;;;;;;18.70;40.47;102461.25;5049998;28;20095;-25
2023/04/05 08:31:40;;;;;;;2.60;1.85;;;;;;;18.73;39.88;102462.81;5048515;28;20052;-25
2023/04/05 08:34:07;;;;;;;6.20;2.50;;;;;;;18.75;40.25;102463.56;5050585;28;20477;-25
2023/04/05 08:36:34;;;;;;;3.67;1.52;;;;;;;18.79;39.69;102466.88;5051106;28;20048;-25
2023/04/05 08:39:00;;;;;;;2.95;2.00;;;;;;;18.82;40.04;102463.97;5048098;28;20048;-25
2023/04/05 08:41:40;;;;;;;3.15;1.83;;;;;;;18.85;39.74;102461.00;5048351;28;20403;-25
2023/04/05 08:44:09;;;;;;;4.20;2.47;;;;;;;18.89;39.83;102459.81;5049526;28;20100;-25
2023/04/05 08:46:36;;;;;;;4.22;2.05;;;;;;;18.93;39.69;102455.91;5048185;28;20684;-25
2023/04/05 08:49:07;;;;;;;2.65;1.80;;;;;;;18.97;39.43;102454.69;5050160;28;20049;-25
2023/04/05 08:51:40;;;;;;;4.32;1.90;;;;;;;18.99;39.33;102453.59;5049942;28;20057;-25
2023/04/05 08:54:07;;;;;;;2.92;1.90;;;;;;;19.03;39.95;102454.22;5048126;28;20040;-25
2023/04/05 08:56:35;;;;;;;3.70;2.28;;;;;;;19.07;39.62;102461.06;5049494;28;20360;-25
2023/04/05 08:59:04;;;;;;;3.55;2.22;;;;;;;19.10;39.10;102455.44;5046917;28;20080;-25
2023/04/05 09:01:32;;;;;;;3.63;1.90;;;;;;;19.14;39.50;102448.84;5049571;28;20053;-25
2023/04/05 09:04:04;;;;;;;3.60;1.88;;;;;;;19.17;39.23;102448.56;5050318;28;20454;-25
2023/04/05 09:06:31;;;;;;;2.78;1.70;;;;;;;19.22;39.36;102445.56;5049922;28;20061;-26
2023/04/05 09:08:58;;;;;;;3.08;1.52;;;;;;;19.26;39.90;102448.81;5050814;28;20352;-26
2023/04/05 09:11:25;;;;;;;3.22;1.60;;;;;;;19.31;39.73;102450.19;5054157;28;20049;-26
2023/04/05 09:13:51;;;;;;;2.10;1.20;;;;;;;19.33;39.13;102440.16;5054843;28;20048;-26
2023/04/05 09:16:19;;;;;;;2.55;1.48;;;;;;;19.38;39.76;102440.66;5053041;28;20053;-26
2023/04/05 09:18:45;;;;;;;2.30;1.50;;;;;;;19.42;39.59;102449.34;5051662;28;20052;-25
2023/04/05 09:21:12;;;;;;;2.53;1.58;;;;;;;19.45;40.01;102444.53;5052398;28;20743;-26
2023/04/05 09:23:50;;;;;;;2.45;1.65;;;;;;;19.49;39.05;102446.00;5051237;28;20041;-26
2023/04/05 09:26:20;;;;;;;1.83;1.25;;;;;;;19.55;39.25;102447.34;5052523;28;20053;-26
2023/04/05 09:28:46;;;;;;;4.57;1.83;;;;;;;19.60;39.67;102434.38;5053042;28;20377;-26
2023/04/05 09:31:30;;;;;;;2.55;1.50;;;;;;;19.65;39.87;102442.09;5052529;28;20136;-26
2023/04/05 09:33:58;;;;;;;2.58;1.60;;;;;;;19.71;39.86;102434.38;5054133;28;20051;-26
2023/04/05 09:36:27;;;;;;;3.70;1.60;;;;;;;19.78;39.17;102433.88;5053474;28;20136;-26
2023/04/05 09:39:06;;;;;;;3.10;1.70;;;;;;;19.84;39.39;102430.69;5052593;28;20056;-26
2023/04/05 09:41:34;;;;;;;2.58;1.40;;;;;;;19.90;39.31;102431.03;5052282;28;20053;-26
2023/04/05 09:44:02;;;;;;;2.53;1.50;;;;;;;19.97;39.32;102429.53;5053678;28;20053;-26
2023/04/05 09:46:30;;;;;;;2.90;1.35;;;;;;;20.04;39.69;102432.56;5052448;28;20077;-26
2023/04/05 09:48:57;;;;;;;2.40;1.27;;;;;;;20.10;39.48;102436.56;5052931;28;20053;-26
2023/04/05 09:51:31;;;;;;;2.05;1.60;;;;;;;20.16;39.22;102426.16;5053048;28;20045;-26
2023/04/05 09:54:02;;;;;;;2.47;1.40;;;;;;;20.23;39.62;102425.66;5053224;28;20069;-26
2023/04/05 09:56:37;;;;;;;3.78;1.60;;;;;;;20.29;39.22;102425.97;5052378;28;20078;-26
2023/04/05 09:59:09;;;;;;;2.88;1.63;;;;;;;20.37;39.06;102428.00;5051846;28;20164;-27
2023/04/05 10:01:37;;;;;;;2.20;1.60;;;;;;;20.41;39.02;102421.38;5048811;28;20468;-26
2023/04/05 10:04:07;;;;;;;2.33;1.48;;;;;;;20.47;39.40;102415.50;5053537;28;20051;-26
2023/04/05 10:06:38;;;;;;;2.80;1.52;;;;;;;20.52;39.00;102413.28;5053787;28;20436;-26
2023/04/05 10:09:06;;;;;;;1.90;1.23;;;;;;;20.57;39.01;102413.72;5052872;28;20049;-26
2023/04/05 10:11:35;;;;;;;1.77;1.30;;;;;;;20.63;38.73;102412.38;5051513;28;20049;-26
2023/04/05 10:14:04;;;;;;;2.88;1.40;;;;;;;20.68;39.21;102410.97;5034930;28;20106;-26
2023/04/05 10:17:08;;;;;;;2.13;1.40;;;;;;;20.73;38.88;102407.00;5049535;28;20052;-26
2023/04/05 10:19:49;;;;;;;2.33;1.50;;;;;;;20.80;38.66;102410.91;5049394;28;20056;-26
2023/04/05 10:22:24;;;;;;;2.22;1.35;;;;;;;20.85;38.38;102411.34;5050025;28;20053;-26
2023/04/05 10:24:59;;;;;;;2.65;1.90;;;;;;;20.90;38.36;102403.69;5051816;28;20103;-26
2023/04/05 10:27:45;;;;;;;2.10;1.40;;;;;;;20.94;38.58;102397.94;5051251;28;20340;-27
2023/04/05 10:30:14;;;;;;;8.15;2.10;;;;;;;21.01;38.82;102392.81;5047778;28;20084;-26
2023/04/05 10:32:59;;;;;;;2.17;1.23;;;;;;;21.05;38.40;102402.34;5050846;28;20440;-27
2023/04/05 10:35:45;;;;;;;1.83;1.30;;;;;;;21.10;38.41;102394.69;5052043;28;20431;-26
2023/04/05 10:38:22;;;;;;;3.13;1.67;;;;;;;21.15;38.42;102384.38;5051496;28;20152;-26
2023/04/05 10:40:57;;;;;;;2.88;1.20;;;;;;;21.19;37.92;102385.81;5052020;28;20106;-27
2023/04/05 10:43:25;;;;;;;1.80;1.13;;;;;;;21.26;38.31;102390.63;5050766;28;20049;-27
2023/04/05 10:45:54;;;;;;;2.20;1.30;;;;;;;21.30;37.89;102384.81;5049703;28;20099;-27
2023/04/05 10:48:35;;;;;;;2.10;1.33;;;;;;;21.33;38.03;102387.28;5052073;28;20114;-26
2023/04/05 10:51:03;;;;;;;3.08;1.75;;;;;;;21.38;37.91;102382.31;5052863;28;20049;-27
2023/04/05 10:53:33;;;;;;;2.33;1.50;;;;;;;21.42;37.95;102369.41;5050235;28;20140;-27
2023/04/05 10:56:00;;;;;;;3.42;1.42;;;;;;;21.46;37.63;102378.09;5050045;28;20049;-27
2023/04/05 10:58:29;;;;;;;2.53;1.30;;;;;;;21.49;37.86;102380.50;5052700;28;20061;-26
2023/04/05 11:00:57;;;;;;;1.80;1.27;;;;;;;21.53;37.65;102372.00;5049846;28;20049;-26
2023/04/05 11:03:53;;;;;;;2.17;1.17;;;;;;;21.56;37.69;102369.03;5052586;28;20095;-26
2023/04/05 11:06:24;;;;;;;2.25;1.30;;;;;;;21.60;37.62;102365.06;5050367;28;20123;-27
2023/04/05 11:09:14;;;;;;;1.73;1.10;;;;;;;21.63;37.48;102366.63;5051712;28;20048;-26
2023/04/05 11:11:49;;;;;;;2.60;1.38;;;;;;;21.68;37.68;102370.59;5048712;28;20045;-26
2023/04/05 11:14:24;;;;;;;2.20;1.27;;;;;;;21.69;37.39;102366.06;5051980;28;20348;-26
2023/04/05 11:16:55;;;;;;;1.50;1.00;;;;;;;21.71;37.33;102364.09;5049244;28;20133;-27
2023/04/05 11:19:44;;;;;;;1.92;1.30;;;;;;;21.71;37.17;102360.50;5049646;28;20743;-27
2023/04/05 11:22:23;;;;;;;3.20;1.15;;;;;;;21.73;37.36;102358.53;5050544;28;20408;-26
2023/04/05 11:24:56;;;;;;;3.30;1.50;;;;;;;21.74;37.41;102360.22;5052180;28;20045;-27
2023/04/05 11:27:36;;;;;;;3.35;1.38;;;;;;;21.74;37.37;102360.22;5050970;28;20061;-27
2023/04/05 11:30:05;;;;;;;2.65;1.33;;;;;;;21.73;37.33;102348.59;5048634;28;20059;-26
2023/04/05 11:32:39;;;;;;;1.83;1.30;;;;;;;21.74;37.12;102346.75;5048504;28;20106;-27
2023/04/05 11:35:11;;;;;;;2.25;1.17;;;;;;;21.75;37.42;102348.44;5051633;28;20079;-27